Time;durP1;ratioP1;P1;durP2;ratioP2;P2;SDS_P1;SDS_P2;PMS_P1;PMS_P2;Temp;Humidity;BMP_temperature;BMP_pressure;BME280_temperature;BME280_humidity;BME280_pressure;Samples;Min_cycle;Max_cycle;Signal;HPM_P1;HPM_P2
2023/09/24 00:00:41;;;;;;;2.25;1.55;;;;;;;;;;2104680;28;20020;-61
2023/09/24 00:02:00;;;;;;;0.93;0.80;;;;;;;;;;2103178;28;20024;-61
2023/09/24 00:03:19;;;;;;;0.80;0.80;;;;;;;;;;2104094;28;20028;-60
2023/09/24 00:04:39;;;;;;;0.85;0.82;;;;;;;;;;2105386;28;20028;-62
2023/09/24 00:06:05;;;;;;;0.85;0.70;;;;;;;;;;2103859;28;20024;-61
2023/09/24 00:07:25;;;;;;;2.83;1.10;;;;;;;;;;2105013;28;20036;-61
2023/09/24 00:08:44;;;;;;;1.15;1.00;;;;;;;;;;2106381;28;20384;-60
2023/09/24 00:10:03;;;;;;;1.48;0.90;;;;;;;;;;2102089;28;20043;-60
2023/09/24 00:11:23;;;;;;;0.80;0.80;;;;;;;;;;2103150;28;20028;-61
2023/09/24 00:12:42;;;;;;;1.27;0.98;;;;;;;;;;2103732;28;20041;-62
2023/09/24 00:14:01;;;;;;;1.17;1.00;;;;;;;;;;2103304;28;20035;-62
2023/09/24 00:15:20;;;;;;;1.67;0.70;;;;;;;;;;2102377;28;20032;-61
2023/09/24 00:16:39;;;;;;;0.80;0.80;;;;;;;;;;2105187;28;20020;-61
2023/09/24 00:17:59;;;;;;;1.35;0.90;;;;;;;;;;2103622;28;20032;-62
2023/09/24 00:19:18;;;;;;;1.35;1.00;;;;;;;;;;2103981;28;20033;-60
2023/09/24 00:20:37;;;;;;;1.00;0.60;;;;;;;;;;2104245;28;20020;-60
2023/09/24 00:21:56;;;;;;;2.35;1.10;;;;;;;;;;2102783;28;20024;-60
2023/09/24 00:23:15;;;;;;;1.52;0.85;;;;;;;;;;2103847;28;20056;-61
2023/09/24 00:24:34;;;;;;;1.15;0.90;;;;;;;;;;2103753;28;20032;-60
2023/09/24 00:25:55;;;;;;;1.85;0.88;;;;;;;;;;2101906;28;20024;-61
2023/09/24 00:27:14;;;;;;;1.33;1.00;;;;;;;;;;2100644;28;20027;-61
2023/09/24 00:28:33;;;;;;;2.78;1.05;;;;;;;;;;2103811;28;20028;-60
2023/09/24 00:29:52;;;;;;;2.63;1.00;;;;;;;;;;2102993;28;20019;-61
2023/09/24 00:31:11;;;;;;;1.08;0.73;;;;;;;;;;2105375;28;20111;-62
2023/09/24 00:32:31;;;;;;;1.23;1.13;;;;;;;;;;2102112;28;20581;-60
2023/09/24 00:33:51;;;;;;;1.58;0.80;;;;;;;;;;2100563;28;20582;-63
2023/09/24 00:35:10;;;;;;;1.00;0.88;;;;;;;;;;2104772;28;20489;-61
2023/09/24 00:36:29;;;;;;;1.02;0.90;;;;;;;;;;2104543;28;20048;-60
2023/09/24 00:37:48;;;;;;;3.10;1.20;;;;;;;;;;2103018;28;20024;-61
2023/09/24 00:39:08;;;;;;;3.60;1.10;;;;;;;;;;2103976;28;20024;-60
2023/09/24 00:40:27;;;;;;;2.13;0.98;;;;;;;;;;2103718;28;20036;-61
2023/09/24 00:41:48;;;;;;;0.88;0.88;;;;;;;;;;2103956;28;20059;-60
2023/09/24 00:43:23;;;;;;;0.85;0.80;;;;;;;;;;2104732;28;20063;-61
2023/09/24 00:44:42;;;;;;;2.13;0.90;;;;;;;;;;2103054;28;20035;-60
2023/09/24 00:46:04;;;;;;;3.28;1.17;;;;;;;;;;2101804;28;20107;-62
2023/09/24 00:47:23;;;;;;;1.10;1.02;;;;;;;;;;2104462;28;20110;-60
2023/09/24 00:48:43;;;;;;;0.93;0.80;;;;;;;;;;2102032;28;20033;-61
2023/09/24 00:50:02;;;;;;;2.35;0.90;;;;;;;;;;2103454;28;20016;-62
2023/09/24 00:51:22;;;;;;;1.30;1.20;;;;;;;;;;2102976;28;20032;-62
2023/09/24 00:52:45;;;;;;;1.10;1.00;;;;;;;;;;2104905;28;20020;-60
2023/09/24 00:54:04;;;;;;;3.20;1.17;;;;;;;;;;2103877;28;20028;-60
2023/09/24 00:55:23;;;;;;;2.30;1.00;;;;;;;;;;2103800;28;20036;-60
2023/09/24 00:56:42;;;;;;;1.67;1.05;;;;;;;;;;2104778;28;20024;-61
2023/09/24 00:58:02;;;;;;;1.58;1.42;;;;;;;;;;2103194;28;20381;-60
2023/09/24 00:59:21;;;;;;;1.75;1.10;;;;;;;;;;2103095;28;20028;-60
2023/09/24 01:00:40;;;;;;;1.90;1.00;;;;;;;;;;2103314;28;20025;-62
2023/09/24 01:01:59;;;;;;;3.35;1.00;;;;;;;;;;2102589;28;20028;-62
2023/09/24 01:03:19;;;;;;;2.67;1.30;;;;;;;;;;2103327;28;20027;-60
2023/09/24 01:04:38;;;;;;;1.23;1.10;;;;;;;;;;2102917;28;20052;-61
2023/09/24 01:05:57;;;;;;;2.90;1.02;;;;;;;;;;2103165;28;20025;-60
2023/09/24 01:07:16;;;;;;;3.45;0.90;;;;;;;;;;2103369;28;20036;-61
2023/09/24 01:08:35;;;;;;;1.73;0.95;;;;;;;;;;2104501;28;20047;-60
2023/09/24 01:09:55;;;;;;;1.55;0.85;;;;;;;;;;2102645;28;20032;-60
2023/09/24 01:11:14;;;;;;;2.15;1.10;;;;;;;;;;2099809;28;20028;-61
2023/09/24 01:12:33;;;;;;;1.27;0.93;;;;;;;;;;2104014;28;20426;-60
2023/09/24 01:13:52;;;;;;;2.90;0.80;;;;;;;;;;2101980;28;20048;-60
2023/09/24 01:15:13;;;;;;;0.98;0.98;;;;;;;;;;2102013;28;20055;-60
2023/09/24 01:16:32;;;;;;;2.92;1.40;;;;;;;;;;2104505;28;20025;-61
2023/09/24 01:17:52;;;;;;;2.28;1.20;;;;;;;;;;2100734;28;20040;-62
2023/09/24 01:19:11;;;;;;;1.48;0.93;;;;;;;;;;2103297;28;20436;-60
2023/09/24 01:20:31;;;;;;;2.25;1.00;;;;;;;;;;2104481;28;20036;-60
2023/09/24 01:21:52;;;;;;;2.67;1.23;;;;;;;;;;2103881;28;20020;-60
2023/09/24 01:23:15;;;;;;;3.90;1.50;;;;;;;;;;2102248;28;20048;-61
2023/09/24 01:24:34;;;;;;;5.40;1.55;;;;;;;;;;2104434;28;20032;-60
2023/09/24 01:25:55;;;;;;;3.38;1.10;;;;;;;;;;2104171;28;20344;-60
2023/09/24 01:27:14;;;;;;;2.40;1.05;;;;;;;;;;2103848;28;20056;-62
2023/09/24 01:28:32;;;;;;;3.05;1.35;;;;;;;;;;2103895;28;20500;-60
2023/09/24 01:29:56;;;;;;;2.20;1.33;;;;;;;;;;2104448;28;20106;-60
2023/09/24 01:31:15;;;;;;;3.50;1.33;;;;;;;;;;2103223;28;20653;-61
2023/09/24 01:32:35;;;;;;;2.17;1.10;;;;;;;;;;2105543;28;20032;-62
2023/09/24 01:33:54;;;;;;;3.72;1.30;;;;;;;;;;2105610;28;20032;-60
2023/09/24 01:35:15;;;;;;;5.53;1.08;;;;;;;;;;2104349;28;20036;-60
2023/09/24 01:36:34;;;;;;;1.52;1.00;;;;;;;;;;2102111;28;20521;-62
2023/09/24 01:38:05;;;;;;;2.97;1.10;;;;;;;;;;2103579;28;20028;-61
2023/09/24 01:39:27;;;;;;;5.25;1.52;;;;;;;;;;2103617;28;20402;-60
2023/09/24 01:40:46;;;;;;;1.95;0.98;;;;;;;;;;2105733;28;20028;-61
2023/09/24 01:42:05;;;;;;;1.77;0.98;;;;;;;;;;2103560;28;20032;-61
2023/09/24 01:43:24;;;;;;;2.70;1.15;;;;;;;;;;2103469;28;20032;-60
2023/09/24 01:44:43;;;;;;;1.27;1.10;;;;;;;;;;2103518;28;20107;-61
2023/09/24 01:46:06;;;;;;;5.38;1.25;;;;;;;;;;2103853;28;20025;-61
2023/09/24 01:47:25;;;;;;;8.07;1.67;;;;;;;;;;2104874;28;20028;-60
2023/09/24 01:48:44;;;;;;;2.55;1.05;;;;;;;;;;2105025;28;20504;-61
2023/09/24 01:50:06;;;;;;;2.65;1.10;;;;;;;;;;2102436;28;20525;-60
2023/09/24 01:51:25;;;;;;;1.30;1.20;;;;;;;;;;2102075;28;20036;-62
2023/09/24 01:52:47;;;;;;;1.67;1.42;;;;;;;;;;2104337;28;20476;-60
2023/09/24 01:54:06;;;;;;;2.55;1.08;;;;;;;;;;2103710;28;20036;-61
2023/09/24 01:55:26;;;;;;;2.70;1.50;;;;;;;;;;2102078;28;20036;-60
2023/09/24 01:56:45;;;;;;;1.63;1.10;;;;;;;;;;2104937;28;20040;-60
2023/09/24 01:58:04;;;;;;;3.53;1.08;;;;;;;;;;2104598;28;20060;-62
2023/09/24 01:59:23;;;;;;;1.73;1.30;;;;;;;;;;2106223;28;20028;-60
2023/09/24 02:00:43;;;;;;;4.15;1.40;;;;;;;;;;2102732;28;20024;-61
2023/09/24 02:02:02;;;;;;;1.60;1.20;;;;;;;;;;2105065;28;20043;-60
2023/09/24 02:03:20;;;;;;;2.05;1.20;;;;;;;;;;2105327;28;20028;-60
2023/09/24 02:04:39;;;;;;;3.30;1.13;;;;;;;;;;2105851;28;20032;-60
2023/09/24 02:05:58;;;;;;;3.58;1.13;;;;;;;;;;2106058;28;20028;-60
2023/09/24 02:07:17;;;;;;;2.30;1.27;;;;;;;;;;2106835;28;20060;-60
2023/09/24 02:08:36;;;;;;;5.80;1.10;;;;;;;;;;2105697;28;20040;-60
2023/09/24 02:09:55;;;;;;;4.10;1.17;;;;;;;;;;2105097;28;20674;-60
2023/09/24 02:11:14;;;;;;;2.70;1.00;;;;;;;;;;2106313;28;20063;-61
2023/09/24 02:12:37;;;;;;;1.98;1.38;;;;;;;;;;2103569;28;20441;-60
2023/09/24 02:13:56;;;;;;;2.47;1.15;;;;;;;;;;2105623;28;20044;-61
2023/09/24 02:15:18;;;;;;;1.30;0.98;;;;;;;;;;2106038;28;20764;-61
2023/09/24 02:16:38;;;;;;;1.98;0.98;;;;;;;;;;2106271;28;20040;-61
2023/09/24 02:17:57;;;;;;;1.58;0.98;;;;;;;;;;2104274;28;20024;-62
2023/09/24 02:19:16;;;;;;;1.08;0.98;;;;;;;;;;2105927;28;20021;-60
2023/09/24 02:20:39;;;;;;;6.22;1.15;;;;;;;;;;2103908;28;20028;-60
2023/09/24 02:21:58;;;;;;;3.35;0.95;;;;;;;;;;2104499;28;20016;-60
2023/09/24 02:23:17;;;;;;;1.17;1.00;;;;;;;;;;2105351;28;20024;-60
2023/09/24 02:24:36;;;;;;;3.10;1.02;;;;;;;;;;2106741;28;20032;-61
2023/09/24 02:25:55;;;;;;;3.17;1.10;;;;;;;;;;2104394;28;20039;-60
2023/09/24 02:27:14;;;;;;;4.18;1.10;;;;;;;;;;2105682;28;20114;-62
2023/09/24 02:28:33;;;;;;;2.60;1.30;;;;;;;;;;2105258;28;20103;-61
2023/09/24 02:29:52;;;;;;;5.22;1.20;;;;;;;;;;2103594;28;20036;-60
2023/09/24 02:31:12;;;;;;;4.13;1.23;;;;;;;;;;2105825;28;20071;-60
2023/09/24 02:32:32;;;;;;;1.50;1.05;;;;;;;;;;2105036;28;20489;-60
2023/09/24 02:33:50;;;;;;;2.67;1.08;;;;;;;;;;2103737;28;20023;-61
2023/09/24 02:35:16;;;;;;;1.83;1.30;;;;;;;;;;2105436;28;20039;-61
2023/09/24 02:36:35;;;;;;;3.90;1.20;;;;;;;;;;2105131;28;20060;-61
2023/09/24 02:37:54;;;;;;;2.65;1.17;;;;;;;;;;2103791;28;20028;-61
2023/09/24 02:39:13;;;;;;;2.10;1.00;;;;;;;;;;2100722;28;20060;-62
2023/09/24 02:40:32;;;;;;;1.70;1.05;;;;;;;;;;2105431;28;20058;-62
2023/09/24 02:41:51;;;;;;;1.63;1.33;;;;;;;;;;2104555;28;20055;-61
2023/09/24 02:43:11;;;;;;;2.72;1.02;;;;;;;;;;2105424;28;20036;-62
2023/09/24 02:44:30;;;;;;;3.13;1.42;;;;;;;;;;2104673;28;20024;-61
2023/09/24 02:45:49;;;;;;;2.53;1.20;;;;;;;;;;2103402;28;20032;-61
2023/09/24 02:47:08;;;;;;;1.95;1.27;;;;;;;;;;2105092;28;20028;-60
2023/09/24 02:48:27;;;;;;;2.65;1.10;;;;;;;;;;2102649;28;20085;-60
2023/09/24 02:49:46;;;;;;;2.28;1.00;;;;;;;;;;2104924;28;20035;-60
2023/09/24 02:51:08;;;;;;;4.63;1.10;;;;;;;;;;2105970;28;20040;-60
2023/09/24 02:52:27;;;;;;;4.13;1.20;;;;;;;;;;2105363;28;20024;-60
2023/09/24 02:53:46;;;;;;;3.33;1.10;;;;;;;;;;2103836;28;20044;-60
2023/09/24 02:55:06;;;;;;;2.75;1.02;;;;;;;;;;2105621;28;20395;-61
2023/09/24 02:56:26;;;;;;;4.55;1.65;;;;;;;;;;2105641;28;20036;-60
2023/09/24 02:57:46;;;;;;;3.10;1.10;;;;;;;;;;2104866;28;20047;-61
2023/09/24 02:59:05;;;;;;;2.22;1.10;;;;;;;;;;2105513;28;20036;-60
2023/09/24 03:00:34;;;;;;;1.40;1.00;;;;;;;;;;2102387;28;20036;-60
2023/09/24 03:01:53;;;;;;;2.72;1.20;;;;;;;;;;2104905;28;20032;-61
2023/09/24 03:03:15;;;;;;;3.80;1.38;;;;;;;;;;2106167;28;20028;-62
2023/09/24 03:04:34;;;;;;;5.18;1.25;;;;;;;;;;2104461;28;20028;-61
2023/09/24 03:05:53;;;;;;;4.88;1.10;;;;;;;;;;2104018;28;20024;-61
2023/09/24 03:07:12;;;;;;;1.85;1.20;;;;;;;;;;2104485;28;20493;-62
2023/09/24 03:08:32;;;;;;;3.65;1.45;;;;;;;;;;2104030;28;20035;-61
2023/09/24 03:09:53;;;;;;;4.18;1.10;;;;;;;;;;2105059;28;20103;-60
2023/09/24 03:11:14;;;;;;;2.15;1.00;;;;;;;;;;2104495;28;20115;-62
2023/09/24 03:12:34;;;;;;;3.60;1.15;;;;;;;;;;2104979;28;20024;-61
2023/09/24 03:13:53;;;;;;;4.32;1.15;;;;;;;;;;2103598;28;20042;-60
2023/09/24 03:15:12;;;;;;;4.10;1.20;;;;;;;;;;2104454;28;20032;-61
2023/09/24 03:16:31;;;;;;;5.28;1.55;;;;;;;;;;2105210;28;20047;-61
2023/09/24 03:17:50;;;;;;;2.28;1.20;;;;;;;;;;2105570;28;20020;-61
2023/09/24 03:19:09;;;;;;;5.47;1.30;;;;;;;;;;2103794;28;20020;-62
2023/09/24 03:20:29;;;;;;;2.97;1.00;;;;;;;;;;2104679;28;20485;-60
2023/09/24 03:21:47;;;;;;;6.60;1.45;;;;;;;;;;2103406;28;20023;-61
2023/09/24 03:23:09;;;;;;;3.38;1.45;;;;;;;;;;2105338;28;20021;-60
2023/09/24 03:24:28;;;;;;;6.00;1.40;;;;;;;;;;2105120;28;20064;-60
2023/09/24 03:25:47;;;;;;;3.58;1.42;;;;;;;;;;2104432;28;20484;-61
2023/09/24 03:27:06;;;;;;;4.07;1.13;;;;;;;;;;2106436;28;20036;-60
2023/09/24 03:28:25;;;;;;;3.58;1.00;;;;;;;;;;2103926;28;20032;-60
2023/09/24 03:29:44;;;;;;;5.20;1.08;;;;;;;;;;2103675;28;20040;-61
2023/09/24 03:31:03;;;;;;;4.65;0.80;;;;;;;;;;2104111;28;20028;-60
2023/09/24 03:32:22;;;;;;;4.80;1.15;;;;;;;;;;2103638;28;20036;-62
2023/09/24 03:33:41;;;;;;;2.92;0.98;;;;;;;;;;2104431;28;20024;-61
2023/09/24 03:35:00;;;;;;;5.03;1.02;;;;;;;;;;2103661;28;20067;-62
2023/09/24 03:36:19;;;;;;;5.60;1.30;;;;;;;;;;2103752;28;20044;-61
2023/09/24 03:37:40;;;;;;;4.50;1.20;;;;;;;;;;2102285;28;20028;-60
2023/09/24 03:38:59;;;;;;;4.25;1.35;;;;;;;;;;2104540;28;20040;-60
2023/09/24 03:40:23;;;;;;;3.47;1.00;;;;;;;;;;2104318;28;20028;-65
2023/09/24 03:41:42;;;;;;;2.95;1.10;;;;;;;;;;2103994;28;20028;-60
2023/09/24 03:43:02;;;;;;;7.18;1.25;;;;;;;;;;2105198;28;20470;-61
2023/09/24 03:44:21;;;;;;;2.17;1.00;;;;;;;;;;2103926;28;20384;-61
2023/09/24 03:45:40;;;;;;;5.28;1.30;;;;;;;;;;2104005;28;20066;-61
2023/09/24 03:46:58;;;;;;;2.70;0.93;;;;;;;;;;2104198;28;20416;-62
2023/09/24 03:48:17;;;;;;;5.47;1.73;;;;;;;;;;2104258;28;20473;-60
2023/09/24 03:49:36;;;;;;;3.25;0.90;;;;;;;;;;2104747;28;20078;-61
2023/09/24 03:50:55;;;;;;;1.00;0.80;;;;;;;;;;2106033;28;20024;-60
2023/09/24 03:52:14;;;;;;;1.92;0.80;;;;;;;;;;2105148;28;20036;-61
2023/09/24 03:53:33;;;;;;;5.80;1.33;;;;;;;;;;2102328;28;20032;-60
2023/09/24 03:54:52;;;;;;;2.75;1.17;;;;;;;;;;2105008;28;20032;-61
2023/09/24 03:56:11;;;;;;;2.88;0.93;;;;;;;;;;2102814;28;20024;-61
2023/09/24 03:57:30;;;;;;;4.32;1.27;;;;;;;;;;2105717;28;20039;-61
2023/09/24 03:58:49;;;;;;;3.60;1.33;;;;;;;;;;2104816;28;20025;-61
2023/09/24 04:00:15;;;;;;;5.30;1.27;;;;;;;;;;2105732;28;20032;-60
2023/09/24 04:01:34;;;;;;;4.60;1.00;;;;;;;;;;2103670;28;20016;-61
2023/09/24 04:02:53;;;;;;;3.85;1.40;;;;;;;;;;2103573;28;20020;-61
2023/09/24 04:04:12;;;;;;;3.25;1.05;;;;;;;;;;2103907;28;20473;-60
2023/09/24 04:05:33;;;;;;;4.88;1.25;;;;;;;;;;2105023;28;20039;-61
2023/09/24 04:06:52;;;;;;;4.82;0.93;;;;;;;;;;2105976;28;20027;-60
2023/09/24 04:08:11;;;;;;;2.33;0.95;;;;;;;;;;2104668;28;20044;-61
2023/09/24 04:09:33;;;;;;;5.35;1.35;;;;;;;;;;2104350;28;20048;-61
2023/09/24 04:10:52;;;;;;;6.78;1.10;;;;;;;;;;2104527;28;20512;-60
2023/09/24 04:12:13;;;;;;;4.55;1.40;;;;;;;;;;2103756;28;20034;-62
2023/09/24 04:13:32;;;;;;;2.63;1.05;;;;;;;;;;2106072;28;20024;-62
2023/09/24 04:14:53;;;;;;;8.30;1.40;;;;;;;;;;2105631;28;20028;-60
2023/09/24 04:16:12;;;;;;;4.38;1.15;;;;;;;;;;2103017;28;20505;-61
2023/09/24 04:17:32;;;;;;;2.83;1.23;;;;;;;;;;2103581;28;20166;-62
2023/09/24 04:18:52;;;;;;;4.35;1.15;;;;;;;;;;2105161;28;20051;-60
2023/09/24 04:20:15;;;;;;;4.68;1.05;;;;;;;;;;2101909;28;20025;-61
2023/09/24 04:21:33;;;;;;;4.45;1.02;;;;;;;;;;2103874;28;20028;-60
2023/09/24 04:22:52;;;;;;;6.30;1.52;;;;;;;;;;2105404;28;20028;-60
2023/09/24 04:24:12;;;;;;;6.65;1.27;;;;;;;;;;2103058;28;20488;-60
2023/09/24 04:25:31;;;;;;;3.17;1.02;;;;;;;;;;2104415;28;20040;-61
2023/09/24 04:26:54;;;;;;;3.63;1.02;;;;;;;;;;2106140;28;20060;-61
2023/09/24 04:28:16;;;;;;;5.68;1.20;;;;;;;;;;2105575;28;20111;-61
2023/09/24 04:29:35;;;;;;;5.70;1.55;;;;;;;;;;2104118;28;20028;-61
2023/09/24 04:30:56;;;;;;;4.63;1.20;;;;;;;;;;2101193;28;20291;-62
2023/09/24 04:32:15;;;;;;;6.70;1.65;;;;;;;;;;2105295;28;20024;-60
2023/09/24 04:33:34;;;;;;;1.85;0.82;;;;;;;;;;2105992;28;20040;-61
2023/09/24 04:34:55;;;;;;;3.72;0.80;;;;;;;;;;2104811;28;20063;-60
2023/09/24 04:36:14;;;;;;;4.25;1.13;;;;;;;;;;2103992;28;20071;-60
2023/09/24 04:37:33;;;;;;;8.23;1.40;;;;;;;;;;2105629;28;20036;-60
2023/09/24 04:38:53;;;;;;;3.40;1.13;;;;;;;;;;2104038;28;20024;-60
2023/09/24 04:40:14;;;;;;;5.47;1.38;;;;;;;;;;2103520;28;20020;-61
2023/09/24 04:41:34;;;;;;;4.35;1.45;;;;;;;;;;2103841;28;20016;-61
2023/09/24 04:42:53;;;;;;;5.45;1.45;;;;;;;;;;2101162;28;20024;-60
2023/09/24 04:44:13;;;;;;;8.50;1.20;;;;;;;;;;2102228;28;20020;-62
2023/09/24 04:45:32;;;;;;;5.55;1.20;;;;;;;;;;2101442;28;20036;-61
2023/09/24 04:46:51;;;;;;;7.80;1.45;;;;;;;;;;2101773;28;20024;-62
2023/09/24 04:48:11;;;;;;;4.93;1.02;;;;;;;;;;2103212;28;20056;-61
2023/09/24 04:49:30;;;;;;;3.97;0.80;;;;;;;;;;2103981;28;20036;-61
2023/09/24 04:50:48;;;;;;;4.68;1.58;;;;;;;;;;2100572;28;20104;-61
2023/09/24 04:52:07;;;;;;;8.00;1.58;;;;;;;;;;2104634;28;20106;-60
2023/09/24 04:53:26;;;;;;;4.78;1.20;;;;;;;;;;2104083;28;20040;-60
2023/09/24 04:54:45;;;;;;;3.78;1.08;;;;;;;;;;2104104;28;20024;-60
2023/09/24 04:56:07;;;;;;;3.88;0.95;;;;;;;;;;2105558;28;20028;-61
2023/09/24 04:57:26;;;;;;;3.50;1.10;;;;;;;;;;2104474;28;20039;-62
2023/09/24 04:58:46;;;;;;;4.72;1.13;;;;;;;;;;2102413;28;20020;-60
2023/09/24 05:00:06;;;;;;;4.65;1.23;;;;;;;;;;2103210;28;20480;-61
2023/09/24 05:01:24;;;;;;;7.72;1.10;;;;;;;;;;2104212;28;20028;-60
2023/09/24 05:02:44;;;;;;;2.83;1.10;;;;;;;;;;2104055;28;20023;-62
2023/09/24 05:04:02;;;;;;;5.15;0.90;;;;;;;;;;2103573;28;20028;-60
2023/09/24 05:05:22;;;;;;;8.45;1.45;;;;;;;;;;2103249;28;20497;-61
2023/09/24 05:06:41;;;;;;;3.60;1.33;;;;;;;;;;2104520;28;20047;-60
2023/09/24 05:08:02;;;;;;;3.42;1.15;;;;;;;;;;2101470;28;20054;-62
2023/09/24 05:09:21;;;;;;;5.22;0.98;;;;;;;;;;2104663;28;20427;-61
2023/09/24 05:10:41;;;;;;;4.60;1.15;;;;;;;;;;2105479;28;20119;-60
2023/09/24 05:12:00;;;;;;;2.20;1.00;;;;;;;;;;2105168;28;20032;-60
2023/09/24 05:13:19;;;;;;;1.92;1.05;;;;;;;;;;2104044;28;20032;-61
2023/09/24 05:14:38;;;;;;;4.65;1.33;;;;;;;;;;2103134;28;20036;-61
2023/09/24 05:16:00;;;;;;;3.10;1.00;;;;;;;;;;2099247;28;20024;-61
2023/09/24 05:17:18;;;;;;;3.50;1.02;;;;;;;;;;2105248;28;20039;-60
2023/09/24 05:18:37;;;;;;;4.90;0.95;;;;;;;;;;2103010;28;20028;-61
2023/09/24 05:19:56;;;;;;;3.83;0.95;;;;;;;;;;2103930;28;20024;-60
2023/09/24 05:21:17;;;;;;;3.13;1.02;;;;;;;;;;2105457;28;20032;-60
2023/09/24 05:22:36;;;;;;;2.85;0.90;;;;;;;;;;2103795;28;20032;-60
2023/09/24 05:23:55;;;;;;;2.65;0.88;;;;;;;;;;2105493;28;20115;-60
2023/09/24 05:25:14;;;;;;;7.35;1.20;;;;;;;;;;2104958;28;20056;-60
2023/09/24 05:26:33;;;;;;;2.58;1.00;;;;;;;;;;2105474;28;20503;-61
2023/09/24 05:27:52;;;;;;;3.47;1.00;;;;;;;;;;2104270;28;20031;-62
2023/09/24 05:29:11;;;;;;;6.47;1.27;;;;;;;;;;2104151;28;20031;-61
2023/09/24 05:30:30;;;;;;;3.42;1.05;;;;;;;;;;2103646;28;20385;-62
2023/09/24 05:31:49;;;;;;;3.92;0.95;;;;;;;;;;2104318;28;20385;-60
2023/09/24 05:33:08;;;;;;;5.70;1.27;;;;;;;;;;2104702;28;20036;-61
2023/09/24 05:34:28;;;;;;;2.22;1.00;;;;;;;;;;2103957;28;20028;-61
2023/09/24 05:35:53;;;;;;;2.08;0.85;;;;;;;;;;2103880;28;20028;-61
2023/09/24 05:37:12;;;;;;;3.15;0.90;;;;;;;;;;2104200;28;20052;-60
2023/09/24 05:38:31;;;;;;;4.18;1.52;;;;;;;;;;2103099;28;20028;-60
2023/09/24 05:39:50;;;;;;;6.05;0.95;;;;;;;;;;2104590;28;20020;-61
2023/09/24 05:41:09;;;;;;;5.38;1.45;;;;;;;;;;2102275;28;20078;-60
2023/09/24 05:42:27;;;;;;;5.72;1.10;;;;;;;;;;2102523;28;20032;-61
2023/09/24 05:43:47;;;;;;;1.27;0.85;;;;;;;;;;2103941;28;20020;-61
2023/09/24 05:45:07;;;;;;;4.47;1.23;;;;;;;;;;2102145;28;20024;-62
2023/09/24 05:46:25;;;;;;;2.50;1.08;;;;;;;;;;2103863;28;20032;-61
2023/09/24 05:47:46;;;;;;;4.00;1.08;;;;;;;;;;2103616;28;20024;-65
2023/09/24 05:49:05;;;;;;;7.45;1.10;;;;;;;;;;2103867;28;20056;-61
2023/09/24 05:50:24;;;;;;;6.50;1.02;;;;;;;;;;2104087;28;20016;-60
2023/09/24 05:51:43;;;;;;;3.13;0.90;;;;;;;;;;2103085;28;20032;-62
2023/09/24 05:53:02;;;;;;;5.88;1.08;;;;;;;;;;2103133;28;20024;-61
2023/09/24 05:54:21;;;;;;;3.03;1.25;;;;;;;;;;2104753;28;20497;-60
2023/09/24 05:55:40;;;;;;;5.95;0.93;;;;;;;;;;2103418;28;20067;-60
2023/09/24 05:56:58;;;;;;;1.88;0.80;;;;;;;;;;2103893;28;20028;-60
2023/09/24 05:58:18;;;;;;;2.53;0.80;;;;;;;;;;2102558;28;20020;-61
2023/09/24 05:59:37;;;;;;;2.33;1.40;;;;;;;;;;2104304;28;20111;-60
2023/09/24 06:00:56;;;;;;;3.70;1.08;;;;;;;;;;2105981;28;20304;-60
2023/09/24 06:02:15;;;;;;;3.63;0.80;;;;;;;;;;2108239;28;20036;-60
2023/09/24 06:03:34;;;;;;;4.07;1.00;;;;;;;;;;2103784;28;20032;-60
2023/09/24 06:04:54;;;;;;;2.42;1.15;;;;;;;;;;2103346;28;20075;-61
2023/09/24 06:06:13;;;;;;;3.67;1.00;;;;;;;;;;2103387;28;20055;-61
2023/09/24 06:07:32;;;;;;;3.05;0.70;;;;;;;;;;2103369;28;20032;-60
2023/09/24 06:08:54;;;;;;;2.53;0.82;;;;;;;;;;2101650;28;20413;-60
2023/09/24 06:10:13;;;;;;;3.05;0.70;;;;;;;;;;2105106;28;20027;-61
2023/09/24 06:11:31;;;;;;;8.77;1.38;;;;;;;;;;2103122;28;20039;-60
2023/09/24 06:12:50;;;;;;;1.67;0.80;;;;;;;;;;2101874;28;20028;-61
2023/09/24 06:14:10;;;;;;;4.20;0.90;;;;;;;;;;2104450;28;20423;-61
2023/09/24 06:15:29;;;;;;;3.60;0.80;;;;;;;;;;2102257;28;20463;-60
2023/09/24 06:16:48;;;;;;;3.58;1.00;;;;;;;;;;2103509;28;20109;-60
2023/09/24 06:18:07;;;;;;;7.88;1.08;;;;;;;;;;2103168;28;20020;-61
2023/09/24 06:19:26;;;;;;;6.22;1.13;;;;;;;;;;2100663;28;20075;-61
2023/09/24 06:20:45;;;;;;;4.63;1.02;;;;;;;;;;2103311;28;20020;-61
2023/09/24 06:22:04;;;;;;;4.03;0.90;;;;;;;;;;2102340;28;20069;-60
2023/09/24 06:23:23;;;;;;;3.85;1.15;;;;;;;;;;2103326;28;20449;-60
2023/09/24 06:24:42;;;;;;;3.45;1.00;;;;;;;;;;2103747;28;20497;-61
2023/09/24 06:26:03;;;;;;;1.67;1.00;;;;;;;;;;2102105;28;20028;-61
2023/09/24 06:27:22;;;;;;;5.03;1.15;;;;;;;;;;2101080;28;20036;-60
2023/09/24 06:28:40;;;;;;;1.80;0.90;;;;;;;;;;2103561;28;20040;-61
2023/09/24 06:30:02;;;;;;;6.53;1.23;;;;;;;;;;2101812;28;20032;-60
2023/09/24 06:31:20;;;;;;;2.92;0.90;;;;;;;;;;2102069;28;20029;-61
2023/09/24 06:32:39;;;;;;;3.75;0.80;;;;;;;;;;2103052;28;20043;-60
2023/09/24 06:33:58;;;;;;;2.42;0.60;;;;;;;;;;2103862;28;20036;-61
2023/09/24 06:35:17;;;;;;;5.93;0.88;;;;;;;;;;2100264;28;20040;-62
2023/09/24 06:36:36;;;;;;;5.03;0.95;;;;;;;;;;2103980;28;20048;-61
2023/09/24 06:37:55;;;;;;;4.57;1.17;;;;;;;;;;2099985;28;20032;-66
2023/09/24 06:39:15;;;;;;;3.20;0.88;;;;;;;;;;2103457;28;20052;-68
2023/09/24 06:40:38;;;;;;;2.85;0.90;;;;;;;;;;2104278;28;20024;-68
2023/09/24 06:41:59;;;;;;;2.55;0.70;;;;;;;;;;2102750;28;20039;-66
2023/09/24 06:43:19;;;;;;;5.05;1.00;;;;;;;;;;2102757;28;20465;-67
2023/09/24 06:44:37;;;;;;;4.95;1.17;;;;;;;;;;2105448;28;20028;-67
2023/09/24 06:45:56;;;;;;;4.88;0.80;;;;;;;;;;2104319;28;20142;-68
2023/09/24 06:47:16;;;;;;;5.05;0.82;;;;;;;;;;2104570;28;20439;-67
2023/09/24 06:48:35;;;;;;;3.28;0.80;;;;;;;;;;2105004;28;20032;-68
2023/09/24 06:49:54;;;;;;;6.03;1.05;;;;;;;;;;2104982;28;20043;-68
2023/09/24 06:51:13;;;;;;;4.90;0.93;;;;;;;;;;2104915;28;20443;-67
2023/09/24 06:52:32;;;;;;;3.55;0.80;;;;;;;;;;2105542;28;20028;-64
2023/09/24 06:53:53;;;;;;;4.20;1.33;;;;;;;;;;2103560;28;20043;-68
2023/09/24 06:55:12;;;;;;;1.63;0.73;;;;;;;;;;2105226;28;20032;-65
2023/09/24 06:56:31;;;;;;;6.28;0.93;;;;;;;;;;2105019;28;20031;-66
2023/09/24 06:57:50;;;;;;;3.92;0.95;;;;;;;;;;2105777;28;20023;-68
2023/09/24 06:59:10;;;;;;;2.13;0.77;;;;;;;;;;2104633;28;20596;-67
2023/09/24 07:00:28;;;;;;;4.25;0.88;;;;;;;;;;2105653;28;20979;-67
2023/09/24 07:01:47;;;;;;;1.75;0.68;;;;;;;;;;2104576;28;20106;-67
2023/09/24 07:03:06;;;;;;;7.32;1.27;;;;;;;;;;2105544;28;20032;-67
2023/09/24 07:04:25;;;;;;;4.00;0.77;;;;;;;;;;2105520;28;20189;-68
2023/09/24 07:05:45;;;;;;;4.70;0.93;;;;;;;;;;2105280;28;20012;-67
2023/09/24 07:07:04;;;;;;;3.17;0.88;;;;;;;;;;2106373;28;20032;-64
2023/09/24 07:08:23;;;;;;;3.90;0.90;;;;;;;;;;2102794;28;20028;-67
2023/09/24 07:09:42;;;;;;;2.95;0.75;;;;;;;;;;2104465;28;20052;-68
2023/09/24 07:11:19;;;;;;;4.50;1.08;;;;;;;;;;2105123;28;20024;-67
2023/09/24 07:12:39;;;;;;;7.28;0.70;;;;;;;;;;2101172;28;20035;-67
2023/09/24 07:13:58;;;;;;;3.15;0.93;;;;;;;;;;2102934;28;20024;-68
2023/09/24 07:15:17;;;;;;;1.58;0.73;;;;;;;;;;2103530;28;20102;-68
2023/09/24 07:16:36;;;;;;;2.92;0.77;;;;;;;;;;2102756;28;20161;-68
2023/09/24 07:17:55;;;;;;;5.45;1.10;;;;;;;;;;2103705;28;21058;-66
2023/09/24 07:19:14;;;;;;;4.22;0.88;;;;;;;;;;2102012;28;20036;-67
2023/09/24 07:20:33;;;;;;;2.88;0.90;;;;;;;;;;2104112;28;20024;-67
2023/09/24 07:21:52;;;;;;;3.13;1.08;;;;;;;;;;2102434;28;20038;-67
2023/09/24 07:23:11;;;;;;;2.55;0.68;;;;;;;;;;2101832;28;20024;-68
2023/09/24 07:24:30;;;;;;;4.70;0.70;;;;;;;;;;2105585;28;20048;-67
2023/09/24 07:25:49;;;;;;;4.70;0.68;;;;;;;;;;2100787;28;20476;-67
2023/09/24 07:27:10;;;;;;;2.65;0.82;;;;;;;;;;2105748;28;20044;-68
2023/09/24 07:28:29;;;;;;;7.97;1.05;;;;;;;;;;2106141;28;20551;-67
2023/09/24 07:29:48;;;;;;;6.28;0.77;;;;;;;;;;2105467;28;20032;-68
2023/09/24 07:31:21;;;;;;;1.50;0.60;;;;;;;;;;2102298;28;20093;-68
2023/09/24 07:32:40;;;;;;;4.65;1.52;;;;;;;;;;2105506;28;20028;-68
2023/09/24 07:34:00;;;;;;;2.97;0.98;;;;;;;;;;2103837;28;20106;-66
2023/09/24 07:35:20;;;;;;;2.47;0.80;;;;;;;;;;2103649;28;20053;-67
2023/09/24 07:36:39;;;;;;;2.65;0.88;;;;;;;;;;2102830;28;20133;-67
2023/09/24 07:37:58;;;;;;;3.30;1.05;;;;;;;;;;2103796;28;20048;-67
2023/09/24 07:39:17;;;;;;;3.45;0.75;;;;;;;;;;2104415;28;20103;-68
2023/09/24 07:40:36;;;;;;;3.20;0.93;;;;;;;;;;2106020;28;20028;-67
2023/09/24 07:41:55;;;;;;;6.18;1.23;;;;;;;;;;2104084;28;20096;-66
2023/09/24 07:43:13;;;;;;;3.13;0.60;;;;;;;;;;2101009;28;20024;-65
2023/09/24 07:44:32;;;;;;;2.45;0.70;;;;;;;;;;2104242;28;20064;-69
2023/09/24 07:45:51;;;;;;;2.03;0.88;;;;;;;;;;2103088;28;20449;-67
2023/09/24 07:47:10;;;;;;;1.75;0.60;;;;;;;;;;2102860;28;20052;-67
2023/09/24 07:48:30;;;;;;;2.90;1.13;;;;;;;;;;2103252;28;20032;-67
2023/09/24 07:49:49;;;;;;;3.38;0.90;;;;;;;;;;2104791;28;20485;-68
2023/09/24 07:51:08;;;;;;;1.92;0.50;;;;;;;;;;2103805;28;20044;-67
2023/09/24 07:52:27;;;;;;;3.15;0.63;;;;;;;;;;2104342;28;20058;-67
2023/09/24 07:53:47;;;;;;;2.25;1.05;;;;;;;;;;2105067;28;20028;-67
2023/09/24 07:55:06;;;;;;;6.38;0.90;;;;;;;;;;2102160;28;20039;-67
2023/09/24 07:56:25;;;;;;;5.22;0.80;;;;;;;;;;2102673;28;20640;-64
2023/09/24 07:57:44;;;;;;;3.28;0.88;;;;;;;;;;2102671;28;20063;-67